RED82 KIJD-ZZZZ

Flight info

Callsign RED82
Flight time N/A
Altitude 1300
Route DCT
Aircraft C172/L-SGRC/S

Departure

Time 2026-04-14 02:00
Airport Windham Airport (KIJD)

Arrival

Time N/A
Airport ZZZZ
Time Latitude Longitude Altitude Speed Heading
2026-04-14 01:42 41.74205 -72.18210 248 ft 0 kts 143°
2026-04-14 01:52 41.74204 -72.18208 248 ft 1 kts 134°
2026-04-14 01:53 41.74225 -72.18204 248 ft 6 kts 335°
2026-04-14 01:53 41.74267 -72.18167 247 ft 10 kts 37°
2026-04-14 01:53 41.74327 -72.18100 246 ft 12 kts 41°
2026-04-14 01:53 41.74373 -72.18016 246 ft 11 kts 65°
2026-04-14 01:54 41.74397 -72.17927 245 ft 10 kts 74°
2026-04-14 01:54 41.74412 -72.17845 245 ft 9 kts 76°
2026-04-14 01:54 41.74431 -72.17762 244 ft 11 kts 74°
2026-04-14 01:54 41.74455 -72.17645 243 ft 14 kts 74°
2026-04-14 01:55 41.74482 -72.17518 242 ft 15 kts 73°
2026-04-14 01:55 41.74510 -72.17380 242 ft 16 kts 75°
2026-04-14 01:55 41.74541 -72.17225 241 ft 18 kts 74°
2026-04-14 01:55 41.74575 -72.17068 240 ft 17 kts 73°
2026-04-14 01:56 41.74603 -72.17002 240 ft 0 kts 20°
2026-04-14 01:59 41.74606 -72.17002 240 ft 3 kts
2026-04-14 01:59 41.74642 -72.17010 245 ft 6 kts 335°
2026-04-14 01:59 41.74637 -72.17105 240 ft 28 kts 255°
2026-04-14 01:59 41.74535 -72.17586 248 ft 74 kts 253°
2026-04-14 02:00 41.74379 -72.18298 420 ft 84 kts 253°
2026-04-14 02:00 41.74208 -72.19075 620 ft 89 kts 252°
2026-04-14 02:00 41.73975 -72.19838 850 ft 88 kts 224°
2026-04-14 02:00 41.73389 -72.19777 1101 ft 107 kts 147°
2026-04-14 02:01 41.72939 -72.18852 1168 ft 133 kts 109°
2026-04-14 02:01 41.73052 -72.17655 1354 ft 136 kts 75°
2026-04-14 02:01 41.73354 -72.16400 1415 ft 145 kts 70°
2026-04-14 02:01 41.73669 -72.15120 1464 ft 141 kts 72°
2026-04-14 02:02 41.74048 -72.13999 1425 ft 123 kts 33°
2026-04-14 02:02 41.74723 -72.13737 1261 ft 89 kts 324°
2026-04-14 02:02 41.74988 -72.14272 1067 ft 69 kts 270°
2026-04-14 02:02 41.74991 -72.14931 836 ft 78 kts 265°
2026-04-14 02:03 41.74914 -72.15685 612 ft 86 kts 259°
2026-04-14 02:03 41.74776 -72.16466 393 ft 84 kts 253°
2026-04-14 02:03 41.74627 -72.17157 253 ft 66 kts 255°
2026-04-14 02:03 41.74530 -72.17623 242 ft 38 kts 256°
2026-04-14 02:04 41.74466 -72.17856 245 ft 16 kts 215°
2026-04-14 02:04 41.74436 -72.17864 245 ft 0 kts 175°
2026-04-14 02:05 41.74435 -72.17863 245 ft 1 kts 175°
2026-04-14 02:05 41.74423 -72.17864 245 ft 6 kts 191°
2026-04-14 02:05 41.74387 -72.17967 245 ft 13 kts 249°
2026-04-14 02:05 41.74370 -72.18046 246 ft 13 kts 241°
2026-04-14 02:06 41.74290 -72.18146 247 ft 13 kts 216°
2026-04-14 02:06 41.74241 -72.18189 248 ft 13 kts 215°
2026-04-14 02:06 41.74205 -72.18207 248 ft 0 kts 155°